Etusivu
METAR-TAF:

METAR-TAF

Lentoasemat :

Hasvik, Norja

Leveyspiiri: 70-29N, Pituuspiiri: 022-09E, korkeus merenpinnasta: 10 m

Tämänhetkinen sää

Tämä raportti tehtiin 5 tuntia ja 14 minuuttia sitten, kello 12.20 UTC
Tuuli 13 kn luoteesta
Lämpötila 8°C
Kosteus 71%
Ilmanpaine 1016 hPa
Näkyvyys 10 km tai enemmän
Muutamia pilviä 3800 ft:n korkeudessa
Hajonneita pilviä 5500 ft:n korkeudessa

METAR: ENHK 031220Z 31013KT 9999 FEW038 BKN055 08/03 Q1016

Aika: 19:34 (17:34 UTC)


TAF: puuttuu

Säähavainnot ja -ennusteet yli 4000 lentoasemalta (METAR- ja TAF-raportit).

Käytössä olevat sääasemat on merkitty karttaan keltaisilla ja punaisilla pisteillä.

Aseta hiiri pisteen päälle nähdäksesi sääaseman nimen.

Klikkaa sitten nähdäksesi säähavainnot ja -ennusteet.

Kartan vaihtaminen: klikkaa mustalla rastilla varustettuja vihreitä pisteitä, niin voit zoomata sisään; viivalla varustettua vihreää pistettä, niin voit zoomata ulos tai vihreitä nuolia, niin pääset viereisille kartoille.


METAR-TAF: